sensor_id;sensor_type;location;lat;lon;timestamp;temperature;humidity
7720;DHT22;3902;49.474;8.616;2023-04-05T00:02:09;7.10;75.00
7720;DHT22;3902;49.474;8.616;2023-04-05T00:04:35;7.10;75.30
7720;DHT22;3902;49.474;8.616;2023-04-05T00:07:02;7.00;75.70
7720;DHT22;3902;49.474;8.616;2023-04-05T00:09:32;7.10;75.40
7720;DHT22;3902;49.474;8.616;2023-04-05T00:11:58;7.00;76.10
7720;DHT22;3902;49.474;8.616;2023-04-05T00:14:23;6.90;76.00
7720;DHT22;3902;49.474;8.616;2023-04-05T00:16:49;7.00;75.80
7720;DHT22;3902;49.474;8.616;2023-04-05T00:19:15;7.00;75.90
7720;DHT22;3902;49.474;8.616;2023-04-05T00:21:40;6.90;76.10
7720;DHT22;3902;49.474;8.616;2023-04-05T00:24:06;6.80;76.00
7720;DHT22;3902;49.474;8.616;2023-04-05T00:26:32;6.80;76.20
7720;DHT22;3902;49.474;8.616;2023-04-05T00:28:57;6.80;76.70
7720;DHT22;3902;49.474;8.616;2023-04-05T00:31:23;6.80;77.40
7720;DHT22;3902;49.474;8.616;2023-04-05T00:33:48;6.80;77.30
7720;DHT22;3902;49.474;8.616;2023-04-05T00:36:17;6.70;77.80
7720;DHT22;3902;49.474;8.616;2023-04-05T00:38:45;6.70;77.60
7720;DHT22;3902;49.474;8.616;2023-04-05T00:41:11;6.70;77.60
7720;DHT22;3902;49.474;8.616;2023-04-05T00:43:37;6.60;77.70
7720;DHT22;3902;49.474;8.616;2023-04-05T00:46:04;6.60;77.20
7720;DHT22;3902;49.474;8.616;2023-04-05T00:48:30;6.60;77.10
7720;DHT22;3902;49.474;8.616;2023-04-05T00:50:57;6.70;77.20
7720;DHT22;3902;49.474;8.616;2023-04-05T00:53:23;6.50;77.80
7720;DHT22;3902;49.474;8.616;2023-04-05T00:55:49;6.40;78.50
7720;DHT22;3902;49.474;8.616;2023-04-05T00:58:16;6.40;78.50
7720;DHT22;3902;49.474;8.616;2023-04-05T01:01:35;6.40;78.80
7720;DHT22;3902;49.474;8.616;2023-04-05T01:03:42;6.40;78.90
7720;DHT22;3902;49.474;8.616;2023-04-05T01:11:46;6.30;79.50
7720;DHT22;3902;49.474;8.616;2023-04-05T01:14:13;6.30;79.40
7720;DHT22;3902;49.474;8.616;2023-04-05T01:16:38;6.20;79.60
7720;DHT22;3902;49.474;8.616;2023-04-05T01:19:04;6.20;80.10
7720;DHT22;3902;49.474;8.616;2023-04-05T01:24:50;6.10;80.10
7720;DHT22;3902;49.474;8.616;2023-04-05T01:27:21;6.20;79.60
7720;DHT22;3902;49.474;8.616;2023-04-05T01:29:56;6.10;80.50
7720;DHT22;3902;49.474;8.616;2023-04-05T01:32:47;6.10;80.50
7720;DHT22;3902;49.474;8.616;2023-04-05T01:35:22;6.10;80.30
7720;DHT22;3902;49.474;8.616;2023-04-05T01:37:54;5.90;81.20
7720;DHT22;3902;49.474;8.616;2023-04-05T01:40:22;5.90;81.20
7720;DHT22;3902;49.474;8.616;2023-04-05T01:42:48;5.90;81.50
7720;DHT22;3902;49.474;8.616;2023-04-05T01:45:13;5.90;82.60
7720;DHT22;3902;49.474;8.616;2023-04-05T01:47:39;5.80;82.40
7720;DHT22;3902;49.474;8.616;2023-04-05T01:50:05;5.80;82.70
7720;DHT22;3902;49.474;8.616;2023-04-05T01:52:31;5.80;82.60
7720;DHT22;3902;49.474;8.616;2023-04-05T01:54:56;5.80;82.60
7720;DHT22;3902;49.474;8.616;2023-04-05T01:57:22;5.70;83.20
7720;DHT22;3902;49.474;8.616;2023-04-05T01:59:48;5.70;83.40
7720;DHT22;3902;49.474;8.616;2023-04-05T02:02:13;5.70;83.60
7720;DHT22;3902;49.474;8.616;2023-04-05T02:04:39;5.70;84.10
7720;DHT22;3902;49.474;8.616;2023-04-05T02:07:04;5.70;83.90
7720;DHT22;3902;49.474;8.616;2023-04-05T02:09:30;5.70;84.50
7720;DHT22;3902;49.474;8.616;2023-04-05T02:11:55;5.60;84.60
7720;DHT22;3902;49.474;8.616;2023-04-05T02:14:22;5.60;84.20
7720;DHT22;3902;49.474;8.616;2023-04-05T02:16:48;5.60;84.30
7720;DHT22;3902;49.474;8.616;2023-04-05T02:19:13;5.50;84.40
7720;DHT22;3902;49.474;8.616;2023-04-05T02:21:40;5.60;84.50
7720;DHT22;3902;49.474;8.616;2023-04-05T02:24:06;5.60;84.60
7720;DHT22;3902;49.474;8.616;2023-04-05T02:26:31;5.50;84.70
7720;DHT22;3902;49.474;8.616;2023-04-05T02:28:57;5.50;84.70
7720;DHT22;3902;49.474;8.616;2023-04-05T02:31:22;5.50;84.70
7720;DHT22;3902;49.474;8.616;2023-04-05T02:33:48;5.50;85.00
7720;DHT22;3902;49.474;8.616;2023-04-05T02:36:13;5.40;86.10
7720;DHT22;3902;49.474;8.616;2023-04-05T02:38:39;5.40;85.60
7720;DHT22;3902;49.474;8.616;2023-04-05T02:41:09;5.30;85.60
7720;DHT22;3902;49.474;8.616;2023-04-05T02:43:36;5.30;85.50
7720;DHT22;3902;49.474;8.616;2023-04-05T02:46:02;5.30;85.90
7720;DHT22;3902;49.474;8.616;2023-04-05T02:48:27;5.30;85.60
7720;DHT22;3902;49.474;8.616;2023-04-05T02:50:53;5.30;85.70
7720;DHT22;3902;49.474;8.616;2023-04-05T02:53:19;5.20;85.60
7720;DHT22;3902;49.474;8.616;2023-04-05T02:55:55;5.20;86.00
7720;DHT22;3902;49.474;8.616;2023-04-05T02:58:21;5.10;86.00
7720;DHT22;3902;49.474;8.616;2023-04-05T03:00:48;5.10;85.80
7720;DHT22;3902;49.474;8.616;2023-04-05T03:03:17;5.00;86.30
7720;DHT22;3902;49.474;8.616;2023-04-05T03:05:43;5.10;86.60
7720;DHT22;3902;49.474;8.616;2023-04-05T03:08:09;5.00;86.90
7720;DHT22;3902;49.474;8.616;2023-04-05T03:10:45;4.90;87.60
7720;DHT22;3902;49.474;8.616;2023-04-05T03:13:12;4.80;87.90
7720;DHT22;3902;49.474;8.616;2023-04-05T03:15:38;4.90;88.20
7720;DHT22;3902;49.474;8.616;2023-04-05T03:18:03;4.80;87.90
7720;DHT22;3902;49.474;8.616;2023-04-05T03:20:29;4.90;87.60
7720;DHT22;3902;49.474;8.616;2023-04-05T03:22:54;4.90;88.00
7720;DHT22;3902;49.474;8.616;2023-04-05T03:25:20;4.90;87.70
7720;DHT22;3902;49.474;8.616;2023-04-05T03:27:46;4.90;87.70
7720;DHT22;3902;49.474;8.616;2023-04-05T03:30:11;4.90;87.90
7720;DHT22;3902;49.474;8.616;2023-04-05T03:32:37;4.90;88.50
7720;DHT22;3902;49.474;8.616;2023-04-05T03:35:03;4.90;87.90
7720;DHT22;3902;49.474;8.616;2023-04-05T03:37:28;4.90;88.40
7720;DHT22;3902;49.474;8.616;2023-04-05T03:39:54;4.90;88.10
7720;DHT22;3902;49.474;8.616;2023-04-05T03:42:19;4.90;88.40
7720;DHT22;3902;49.474;8.616;2023-04-05T03:44:45;4.90;88.40
7720;DHT22;3902;49.474;8.616;2023-04-05T03:47:12;4.90;88.40
7720;DHT22;3902;49.474;8.616;2023-04-05T03:49:37;4.90;88.70
7720;DHT22;3902;49.474;8.616;2023-04-05T03:52:03;4.80;88.90
7720;DHT22;3902;49.474;8.616;2023-04-05T03:54:28;4.80;88.80
7720;DHT22;3902;49.474;8.616;2023-04-05T03:56:54;4.80;88.70
7720;DHT22;3902;49.474;8.616;2023-04-05T03:59:20;4.60;89.60
7720;DHT22;3902;49.474;8.616;2023-04-05T04:01:46;4.70;89.80
7720;DHT22;3902;49.474;8.616;2023-04-05T04:04:12;4.60;90.10
7720;DHT22;3902;49.474;8.616;2023-04-05T04:06:37;4.60;90.10
7720;DHT22;3902;49.474;8.616;2023-04-05T04:09:03;4.50;90.20
7720;DHT22;3902;49.474;8.616;2023-04-05T04:11:30;4.50;90.20
7720;DHT22;3902;49.474;8.616;2023-04-05T04:13:55;4.50;90.50
7720;DHT22;3902;49.474;8.616;2023-04-05T04:16:21;4.50;90.50
7720;DHT22;3902;49.474;8.616;2023-04-05T04:18:46;4.40;90.60
7720;DHT22;3902;49.474;8.616;2023-04-05T04:21:12;4.40;90.50
7720;DHT22;3902;49.474;8.616;2023-04-05T04:23:39;4.40;90.80
7720;DHT22;3902;49.474;8.616;2023-04-05T04:26:04;4.40;91.00
7720;DHT22;3902;49.474;8.616;2023-04-05T04:28:30;4.40;91.00
7720;DHT22;3902;49.474;8.616;2023-04-05T04:30:59;4.40;90.70
7720;DHT22;3902;49.474;8.616;2023-04-05T04:33:29;4.30;90.80
7720;DHT22;3902;49.474;8.616;2023-04-05T04:35:55;4.40;90.80
7720;DHT22;3902;49.474;8.616;2023-04-05T04:38:20;4.40;90.70
7720;DHT22;3902;49.474;8.616;2023-04-05T04:40:46;4.40;90.80
7720;DHT22;3902;49.474;8.616;2023-04-05T04:43:15;4.40;90.80
7720;DHT22;3902;49.474;8.616;2023-04-05T04:45:51;4.40;90.90
7720;DHT22;3902;49.474;8.616;2023-04-05T04:48:19;4.30;91.10
7720;DHT22;3902;49.474;8.616;2023-04-05T04:50:46;4.30;90.90
7720;DHT22;3902;49.474;8.616;2023-04-05T04:53:12;4.30;91.20
7720;DHT22;3902;49.474;8.616;2023-04-05T04:55:41;4.30;91.00
7720;DHT22;3902;49.474;8.616;2023-04-05T04:58:07;4.30;91.00
7720;DHT22;3902;49.474;8.616;2023-04-05T05:00:41;4.30;91.20
7720;DHT22;3902;49.474;8.616;2023-04-05T05:03:09;4.30;91.30
7720;DHT22;3902;49.474;8.616;2023-04-05T05:05:41;4.30;91.30
7720;DHT22;3902;49.474;8.616;2023-04-05T05:08:06;4.30;91.40
7720;DHT22;3902;49.474;8.616;2023-04-05T05:10:32;4.20;91.30
7720;DHT22;3902;49.474;8.616;2023-04-05T05:12:57;4.30;91.30
7720;DHT22;3902;49.474;8.616;2023-04-05T05:15:23;4.20;91.30
7720;DHT22;3902;49.474;8.616;2023-04-05T05:17:48;4.30;91.10
7720;DHT22;3902;49.474;8.616;2023-04-05T05:20:17;4.30;91.00
7720;DHT22;3902;49.474;8.616;2023-04-05T05:22:43;4.30;91.10
7720;DHT22;3902;49.474;8.616;2023-04-05T05:25:08;4.30;91.30
7720;DHT22;3902;49.474;8.616;2023-04-05T05:27:36;4.30;91.10
7720;DHT22;3902;49.474;8.616;2023-04-05T05:30:02;4.30;91.40
7720;DHT22;3902;49.474;8.616;2023-04-05T05:32:28;4.20;91.20
7720;DHT22;3902;49.474;8.616;2023-04-05T05:34:54;4.20;91.20
7720;DHT22;3902;49.474;8.616;2023-04-05T05:37:21;4.30;91.30
7720;DHT22;3902;49.474;8.616;2023-04-05T05:39:53;4.30;91.20
7720;DHT22;3902;49.474;8.616;2023-04-05T05:42:19;4.30;91.40
7720;DHT22;3902;49.474;8.616;2023-04-05T05:44:45;4.30;91.50
7720;DHT22;3902;49.474;8.616;2023-04-05T05:47:11;4.30;91.70
7720;DHT22;3902;49.474;8.616;2023-04-05T05:49:36;4.30;91.60
7720;DHT22;3902;49.474;8.616;2023-04-05T05:52:02;4.30;91.50
7720;DHT22;3902;49.474;8.616;2023-04-05T05:54:28;4.30;91.90
7720;DHT22;3902;49.474;8.616;2023-04-05T05:56:53;4.30;91.80
7720;DHT22;3902;49.474;8.616;2023-04-05T05:59:19;4.30;91.80
7720;DHT22;3902;49.474;8.616;2023-04-05T06:01:45;4.40;91.90
7720;DHT22;3902;49.474;8.616;2023-04-05T06:04:14;4.40;91.90
7720;DHT22;3902;49.474;8.616;2023-04-05T06:06:40;4.50;91.70
7720;DHT22;3902;49.474;8.616;2023-04-05T06:09:11;4.50;91.80
7720;DHT22;3902;49.474;8.616;2023-04-05T06:11:36;4.50;91.80
7720;DHT22;3902;49.474;8.616;2023-04-05T06:14:02;4.50;91.90
7720;DHT22;3902;49.474;8.616;2023-04-05T06:16:27;4.50;92.00
7720;DHT22;3902;49.474;8.616;2023-04-05T06:18:55;4.60;91.90
7720;DHT22;3902;49.474;8.616;2023-04-05T06:21:21;4.60;91.60
7720;DHT22;3902;49.474;8.616;2023-04-05T06:23:47;4.70;91.70
7720;DHT22;3902;49.474;8.616;2023-04-05T06:26:19;4.70;91.70
7720;DHT22;3902;49.474;8.616;2023-04-05T06:28:45;4.70;92.00
7720;DHT22;3902;49.474;8.616;2023-04-05T06:31:13;4.80;92.00
7720;DHT22;3902;49.474;8.616;2023-04-05T06:33:40;4.80;91.90
7720;DHT22;3902;49.474;8.616;2023-04-05T06:36:06;4.80;91.50
7720;DHT22;3902;49.474;8.616;2023-04-05T06:38:31;4.90;92.10
7720;DHT22;3902;49.474;8.616;2023-04-05T06:40:57;4.90;92.60
7720;DHT22;3902;49.474;8.616;2023-04-05T06:43:22;4.90;92.20
7720;DHT22;3902;49.474;8.616;2023-04-05T06:45:48;4.90;92.10
7720;DHT22;3902;49.474;8.616;2023-04-05T06:48:13;5.00;92.40
7720;DHT22;3902;49.474;8.616;2023-04-05T06:50:39;5.00;92.20
7720;DHT22;3902;49.474;8.616;2023-04-05T06:53:05;5.00;92.10
7720;DHT22;3902;49.474;8.616;2023-04-05T06:55:31;5.10;92.10
7720;DHT22;3902;49.474;8.616;2023-04-05T06:57:57;5.10;92.40
7720;DHT22;3902;49.474;8.616;2023-04-05T07:00:22;5.10;92.30
7720;DHT22;3902;49.474;8.616;2023-04-05T07:02:48;5.20;91.80
7720;DHT22;3902;49.474;8.616;2023-04-05T07:05:14;5.20;92.20
7720;DHT22;3902;49.474;8.616;2023-04-05T07:07:40;5.20;92.30
7720;DHT22;3902;49.474;8.616;2023-04-05T07:10:08;5.30;91.70
7720;DHT22;3902;49.474;8.616;2023-04-05T07:12:34;5.30;91.30
7720;DHT22;3902;49.474;8.616;2023-04-05T07:14:59;5.30;90.80
7720;DHT22;3902;49.474;8.616;2023-04-05T07:17:25;5.40;90.30
7720;DHT22;3902;49.474;8.616;2023-04-05T07:19:50;5.40;90.00
7720;DHT22;3902;49.474;8.616;2023-04-05T07:22:16;5.30;89.40
7720;DHT22;3902;49.474;8.616;2023-04-05T07:24:44;5.30;88.80
7720;DHT22;3902;49.474;8.616;2023-04-05T07:27:11;5.40;90.20
7720;DHT22;3902;49.474;8.616;2023-04-05T07:29:36;5.40;90.50
7720;DHT22;3902;49.474;8.616;2023-04-05T07:32:05;5.50;90.60
7720;DHT22;3902;49.474;8.616;2023-04-05T07:34:32;5.50;90.30
7720;DHT22;3902;49.474;8.616;2023-04-05T07:36:57;5.50;90.50
7720;DHT22;3902;49.474;8.616;2023-04-05T07:39:23;5.60;90.50
7720;DHT22;3902;49.474;8.616;2023-04-05T07:41:48;5.60;90.60
7720;DHT22;3902;49.474;8.616;2023-04-05T07:44:14;5.60;90.60
7720;DHT22;3902;49.474;8.616;2023-04-05T07:46:39;5.70;90.80
7720;DHT22;3902;49.474;8.616;2023-04-05T07:49:09;5.70;91.10
7720;DHT22;3902;49.474;8.616;2023-04-05T07:51:35;5.80;90.90
7720;DHT22;3902;49.474;8.616;2023-04-05T07:54:05;5.80;90.40
7720;DHT22;3902;49.474;8.616;2023-04-05T07:56:31;5.80;89.80
7720;DHT22;3902;49.474;8.616;2023-04-05T07:58:57;5.80;90.00
7720;DHT22;3902;49.474;8.616;2023-04-05T08:01:23;5.90;90.10
7720;DHT22;3902;49.474;8.616;2023-04-05T08:03:52;5.90;90.20
7720;DHT22;3902;49.474;8.616;2023-04-05T08:06:18;6.00;89.60
7720;DHT22;3902;49.474;8.616;2023-04-05T08:08:45;6.00;88.50
7720;DHT22;3902;49.474;8.616;2023-04-05T08:11:11;6.00;89.40
7720;DHT22;3902;49.474;8.616;2023-04-05T08:13:37;6.10;90.00
7720;DHT22;3902;49.474;8.616;2023-04-05T08:16:06;6.20;90.20
7720;DHT22;3902;49.474;8.616;2023-04-05T08:18:32;6.20;89.30
7720;DHT22;3902;49.474;8.616;2023-04-05T08:20:58;6.30;90.10
7720;DHT22;3902;49.474;8.616;2023-04-05T08:23:23;6.30;89.30
7720;DHT22;3902;49.474;8.616;2023-04-05T08:25:49;6.30;88.20
7720;DHT22;3902;49.474;8.616;2023-04-05T08:28:15;6.40;88.60
7720;DHT22;3902;49.474;8.616;2023-04-05T08:30:40;6.40;89.30
7720;DHT22;3902;49.474;8.616;2023-04-05T08:33:07;6.50;88.90
7720;DHT22;3902;49.474;8.616;2023-04-05T08:35:35;6.60;89.80
7720;DHT22;3902;49.474;8.616;2023-04-05T08:38:00;6.60;89.80
7720;DHT22;3902;49.474;8.616;2023-04-05T08:40:39;6.70;89.20
7720;DHT22;3902;49.474;8.616;2023-04-05T08:43:13;6.70;89.20
7720;DHT22;3902;49.474;8.616;2023-04-05T08:45:48;6.80;88.20
7720;DHT22;3902;49.474;8.616;2023-04-05T08:48:14;6.90;88.50
7720;DHT22;3902;49.474;8.616;2023-04-05T08:50:40;6.90;88.60
7720;DHT22;3902;49.474;8.616;2023-04-05T08:53:06;7.00;88.90
7720;DHT22;3902;49.474;8.616;2023-04-05T08:55:35;7.10;87.30
7720;DHT22;3902;49.474;8.616;2023-04-05T08:58:02;7.10;87.50
7720;DHT22;3902;49.474;8.616;2023-04-05T09:00:31;7.10;85.90
7720;DHT22;3902;49.474;8.616;2023-04-05T09:02:58;7.20;86.50
7720;DHT22;3902;49.474;8.616;2023-04-05T09:05:26;7.20;86.80
7720;DHT22;3902;49.474;8.616;2023-04-05T09:07:53;7.30;86.70
7720;DHT22;3902;49.474;8.616;2023-04-05T09:10:20;7.40;85.30
7720;DHT22;3902;49.474;8.616;2023-04-05T09:12:46;7.40;84.10
7720;DHT22;3902;49.474;8.616;2023-04-05T09:15:13;7.50;84.40
7720;DHT22;3902;49.474;8.616;2023-04-05T09:17:40;7.60;84.10
7720;DHT22;3902;49.474;8.616;2023-04-05T09:20:07;7.60;83.00
7720;DHT22;3902;49.474;8.616;2023-04-05T09:22:44;7.70;83.00
7720;DHT22;3902;49.474;8.616;2023-04-05T09:25:11;7.80;82.40
7720;DHT22;3902;49.474;8.616;2023-04-05T09:27:53;7.80;81.20
7720;DHT22;3902;49.474;8.616;2023-04-05T09:30:24;7.70;81.10
7720;DHT22;3902;49.474;8.616;2023-04-05T09:32:50;7.80;80.40
7720;DHT22;3902;49.474;8.616;2023-04-05T09:35:27;7.80;82.00
7720;DHT22;3902;49.474;8.616;2023-04-05T09:37:58;7.90;82.40
7720;DHT22;3902;49.474;8.616;2023-04-05T09:40:43;8.10;80.80
7720;DHT22;3902;49.474;8.616;2023-04-05T09:43:09;8.10;80.10
7720;DHT22;3902;49.474;8.616;2023-04-05T09:45:39;8.20;79.90
7720;DHT22;3902;49.474;8.616;2023-04-05T09:48:08;8.20;79.20
7720;DHT22;3902;49.474;8.616;2023-04-05T09:50:34;8.30;79.40
7720;DHT22;3902;49.474;8.616;2023-04-05T09:53:08;8.40;78.10
7720;DHT22;3902;49.474;8.616;2023-04-05T09:55:35;8.40;78.80
7720;DHT22;3902;49.474;8.616;2023-04-05T09:58:01;8.50;78.40
7720;DHT22;3902;49.474;8.616;2023-04-05T10:00:28;8.50;79.20
7720;DHT22;3902;49.474;8.616;2023-04-05T10:02:55;8.70;79.30
7720;DHT22;3902;49.474;8.616;2023-04-05T10:05:26;8.70;77.00
7720;DHT22;3902;49.474;8.616;2023-04-05T10:07:53;8.70;77.10
7720;DHT22;3902;49.474;8.616;2023-04-05T10:10:21;8.80;78.20
7720;DHT22;3902;49.474;8.616;2023-04-05T10:12:47;9.00;78.60
7720;DHT22;3902;49.474;8.616;2023-04-05T10:15:14;9.00;78.90
7720;DHT22;3902;49.474;8.616;2023-04-05T10:18:08;9.20;80.60
7720;DHT22;3902;49.474;8.616;2023-04-05T10:20:38;9.40;81.20
7720;DHT22;3902;49.474;8.616;2023-04-05T10:23:06;9.50;79.80
7720;DHT22;3902;49.474;8.616;2023-04-05T10:28:31;9.60;76.90
7720;DHT22;3902;49.474;8.616;2023-04-05T10:33:46;9.90;76.50
7720;DHT22;3902;49.474;8.616;2023-04-05T10:36:16;9.90;76.40
7720;DHT22;3902;49.474;8.616;2023-04-05T10:41:40;10.00;75.60
7720;DHT22;3902;49.474;8.616;2023-04-05T10:44:09;10.20;76.10
7720;DHT22;3902;49.474;8.616;2023-04-05T10:46:35;10.30;75.60
7720;DHT22;3902;49.474;8.616;2023-04-05T10:49:17;10.60;77.70
7720;DHT22;3902;49.474;8.616;2023-04-05T10:51:45;10.80;79.00
7720;DHT22;3902;49.474;8.616;2023-04-05T10:54:11;11.10;79.00
7720;DHT22;3902;49.474;8.616;2023-04-05T10:56:38;11.20;75.60
7720;DHT22;3902;49.474;8.616;2023-04-05T10:59:04;11.60;76.70
7720;DHT22;3902;49.474;8.616;2023-04-05T11:01:31;12.10;75.10
7720;DHT22;3902;49.474;8.616;2023-04-05T11:04:15;12.60;72.50
7720;DHT22;3902;49.474;8.616;2023-04-05T11:06:41;13.40;72.40
7720;DHT22;3902;49.474;8.616;2023-04-05T11:09:17;14.70;70.40
7720;DHT22;3902;49.474;8.616;2023-04-05T11:11:46;15.90;64.40
7720;DHT22;3902;49.474;8.616;2023-04-05T11:14:21;17.00;64.90
7720;DHT22;3902;49.474;8.616;2023-04-05T11:16:50;18.00;64.10
7720;DHT22;3902;49.474;8.616;2023-04-05T11:22:04;19.70;58.30
7720;DHT22;3902;49.474;8.616;2023-04-05T11:24:50;19.90;54.80
7720;DHT22;3902;49.474;8.616;2023-04-05T11:27:34;20.40;54.20
7720;DHT22;3902;49.474;8.616;2023-04-05T11:30:03;21.00;54.40
7720;DHT22;3902;49.474;8.616;2023-04-05T11:32:43;20.40;50.00
7720;DHT22;3902;49.474;8.616;2023-04-05T11:35:16;20.70;51.00
7720;DHT22;3902;49.474;8.616;2023-04-05T11:40:35;21.40;50.20
7720;DHT22;3902;49.474;8.616;2023-04-05T11:43:05;21.90;49.90
7720;DHT22;3902;49.474;8.616;2023-04-05T11:45:33;22.20;49.50
7720;DHT22;3902;49.474;8.616;2023-04-05T11:48:03;22.60;50.50
7720;DHT22;3902;49.474;8.616;2023-04-05T11:50:29;22.10;46.30
7720;DHT22;3902;49.474;8.616;2023-04-05T11:53:20;22.20;47.70
7720;DHT22;3902;49.474;8.616;2023-04-05T11:55:48;22.40;46.10
7720;DHT22;3902;49.474;8.616;2023-04-05T11:58:17;21.60;45.50
7720;DHT22;3902;49.474;8.616;2023-04-05T12:00:44;21.80;46.90
7720;DHT22;3902;49.474;8.616;2023-04-05T12:03:14;21.80;46.40
7720;DHT22;3902;49.474;8.616;2023-04-05T12:06:03;20.80;44.70
7720;DHT22;3902;49.474;8.616;2023-04-05T12:08:43;20.50;46.90
7720;DHT22;3902;49.474;8.616;2023-04-05T12:11:14;20.60;46.30
7720;DHT22;3902;49.474;8.616;2023-04-05T12:13:40;20.90;48.40
7720;DHT22;3902;49.474;8.616;2023-04-05T12:16:07;21.40;47.80
7720;DHT22;3902;49.474;8.616;2023-04-05T12:18:36;21.80;46.40
7720;DHT22;3902;49.474;8.616;2023-04-05T12:21:04;22.20;46.30
7720;DHT22;3902;49.474;8.616;2023-04-05T12:23:30;22.40;45.00
7720;DHT22;3902;49.474;8.616;2023-04-05T12:25:56;23.00;45.80
7720;DHT22;3902;49.474;8.616;2023-04-05T12:28:22;23.70;47.30
7720;DHT22;3902;49.474;8.616;2023-04-05T12:30:52;24.20;46.80
7720;DHT22;3902;49.474;8.616;2023-04-05T12:33:32;24.60;45.80
7720;DHT22;3902;49.474;8.616;2023-04-05T12:36:00;24.80;43.50
7720;DHT22;3902;49.474;8.616;2023-04-05T12:38:29;24.90;42.70
7720;DHT22;3902;49.474;8.616;2023-04-05T12:41:01;24.60;42.60
7720;DHT22;3902;49.474;8.616;2023-04-05T12:43:41;23.60;41.10
7720;DHT22;3902;49.474;8.616;2023-04-05T12:46:10;23.40;42.90
7720;DHT22;3902;49.474;8.616;2023-04-05T12:48:36;23.20;41.60
7720;DHT22;3902;49.474;8.616;2023-04-05T12:51:03;23.60;43.80
7720;DHT22;3902;49.474;8.616;2023-04-05T12:53:29;24.10;44.60
7720;DHT22;3902;49.474;8.616;2023-04-05T12:55:56;24.70;43.50
7720;DHT22;3902;49.474;8.616;2023-04-05T12:58:31;25.10;43.50
7720;DHT22;3902;49.474;8.616;2023-04-05T13:00:58;25.60;42.70
7720;DHT22;3902;49.474;8.616;2023-04-05T13:03:25;25.90;42.00
7720;DHT22;3902;49.474;8.616;2023-04-05T13:05:51;26.20;42.40
7720;DHT22;3902;49.474;8.616;2023-04-05T13:08:17;26.30;40.90
7720;DHT22;3902;49.474;8.616;2023-04-05T13:10:44;26.60;40.20
7720;DHT22;3902;49.474;8.616;2023-04-05T13:13:11;25.80;38.20
7720;DHT22;3902;49.474;8.616;2023-04-05T13:15:36;24.60;39.90
7720;DHT22;3902;49.474;8.616;2023-04-05T13:18:02;25.30;40.20
7720;DHT22;3902;49.474;8.616;2023-04-05T13:20:27;24.90;39.60
7720;DHT22;3902;49.474;8.616;2023-04-05T13:22:53;25.10;40.20
7720;DHT22;3902;49.474;8.616;2023-04-05T13:25:18;25.60;42.20
7720;DHT22;3902;49.474;8.616;2023-04-05T13:27:44;25.70;38.60
7720;DHT22;3902;49.474;8.616;2023-04-05T13:30:10;24.70;38.50
7720;DHT22;3902;49.474;8.616;2023-04-05T13:32:36;23.40;38.40
7720;DHT22;3902;49.474;8.616;2023-04-05T13:35:01;22.90;37.70
7720;DHT22;3902;49.474;8.616;2023-04-05T13:37:27;23.30;39.40
7720;DHT22;3902;49.474;8.616;2023-04-05T13:39:52;23.80;40.00
7720;DHT22;3902;49.474;8.616;2023-04-05T13:42:18;23.80;40.70
7720;DHT22;3902;49.474;8.616;2023-04-05T13:44:43;23.90;40.50
7720;DHT22;3902;49.474;8.616;2023-04-05T13:47:09;24.00;39.80
7720;DHT22;3902;49.474;8.616;2023-04-05T13:49:34;23.40;38.40
7720;DHT22;3902;49.474;8.616;2023-04-05T13:52:00;23.90;39.10
7720;DHT22;3902;49.474;8.616;2023-04-05T13:54:26;24.80;39.80
7720;DHT22;3902;49.474;8.616;2023-04-05T13:56:51;25.10;39.80
7720;DHT22;3902;49.474;8.616;2023-04-05T13:59:17;23.90;37.90
7720;DHT22;3902;49.474;8.616;2023-04-05T14:01:47;24.20;39.40
7720;DHT22;3902;49.474;8.616;2023-04-05T14:04:13;24.90;40.00
7720;DHT22;3902;49.474;8.616;2023-04-05T14:06:39;25.40;39.60
7720;DHT22;3902;49.474;8.616;2023-04-05T14:09:04;25.70;39.20
7720;DHT22;3902;49.474;8.616;2023-04-05T14:11:34;25.70;39.40
7720;DHT22;3902;49.474;8.616;2023-04-05T14:14:00;25.50;36.50
7720;DHT22;3902;49.474;8.616;2023-04-05T14:16:25;25.70;37.70
7720;DHT22;3902;49.474;8.616;2023-04-05T14:18:51;25.80;36.70
7720;DHT22;3902;49.474;8.616;2023-04-05T14:21:17;26.00;37.30
7720;DHT22;3902;49.474;8.616;2023-04-05T14:23:42;26.30;38.00
7720;DHT22;3902;49.474;8.616;2023-04-05T14:26:08;26.20;36.40
7720;DHT22;3902;49.474;8.616;2023-04-05T14:28:34;26.00;35.80
7720;DHT22;3902;49.474;8.616;2023-04-05T14:30:59;26.30;36.80
7720;DHT22;3902;49.474;8.616;2023-04-05T14:33:25;26.20;36.70
7720;DHT22;3902;49.474;8.616;2023-04-05T14:35:53;26.40;37.30
7720;DHT22;3902;49.474;8.616;2023-04-05T14:38:19;26.50;37.20
7720;DHT22;3902;49.474;8.616;2023-04-05T14:40:45;25.80;34.70
7720;DHT22;3902;49.474;8.616;2023-04-05T14:43:10;24.50;35.40
7720;DHT22;3902;49.474;8.616;2023-04-05T14:45:36;24.80;37.10
7720;DHT22;3902;49.474;8.616;2023-04-05T14:48:02;25.00;38.00
7720;DHT22;3902;49.474;8.616;2023-04-05T14:50:27;24.90;36.70
7720;DHT22;3902;49.474;8.616;2023-04-05T14:52:57;22.90;34.90
7720;DHT22;3902;49.474;8.616;2023-04-05T14:55:23;23.90;37.60
7720;DHT22;3902;49.474;8.616;2023-04-05T14:57:48;23.80;36.00
7720;DHT22;3902;49.474;8.616;2023-04-05T15:00:15;24.40;38.50
7720;DHT22;3902;49.474;8.616;2023-04-05T15:02:41;24.40;37.20
7720;DHT22;3902;49.474;8.616;2023-04-05T15:05:07;24.20;38.40
7720;DHT22;3902;49.474;8.616;2023-04-05T15:07:32;24.70;38.20
7720;DHT22;3902;49.474;8.616;2023-04-05T15:09:58;25.00;38.40
7720;DHT22;3902;49.474;8.616;2023-04-05T15:12:25;24.90;37.40
7720;DHT22;3902;49.474;8.616;2023-04-05T15:14:51;24.90;39.70
7720;DHT22;3902;49.474;8.616;2023-04-05T15:17:19;24.90;38.10
7720;DHT22;3902;49.474;8.616;2023-04-05T15:19:44;24.70;37.90
7720;DHT22;3902;49.474;8.616;2023-04-05T15:22:10;24.10;36.40
7720;DHT22;3902;49.474;8.616;2023-04-05T15:24:36;23.90;38.90
7720;DHT22;3902;49.474;8.616;2023-04-05T15:27:02;23.70;38.40
7720;DHT22;3902;49.474;8.616;2023-04-05T15:29:28;23.40;39.20
7720;DHT22;3902;49.474;8.616;2023-04-05T15:31:54;22.90;38.20
7720;DHT22;3902;49.474;8.616;2023-04-05T15:34:20;22.20;38.10
7720;DHT22;3902;49.474;8.616;2023-04-05T15:36:46;22.10;39.00
7720;DHT22;3902;49.474;8.616;2023-04-05T15:39:11;21.80;39.40
7720;DHT22;3902;49.474;8.616;2023-04-05T15:41:37;21.60;41.00
7720;DHT22;3902;49.474;8.616;2023-04-05T15:44:03;21.50;41.60
7720;DHT22;3902;49.474;8.616;2023-04-05T15:46:28;21.30;41.90
7720;DHT22;3902;49.474;8.616;2023-04-05T15:48:54;21.20;41.70
7720;DHT22;3902;49.474;8.616;2023-04-05T15:51:20;21.10;41.80
7720;DHT22;3902;49.474;8.616;2023-04-05T15:53:46;20.90;42.50
7720;DHT22;3902;49.474;8.616;2023-04-05T15:56:11;20.70;42.40
7720;DHT22;3902;49.474;8.616;2023-04-05T15:58:37;20.50;42.80
7720;DHT22;3902;49.474;8.616;2023-04-05T16:01:03;20.30;42.10
7720;DHT22;3902;49.474;8.616;2023-04-05T16:03:31;20.20;42.50
7720;DHT22;3902;49.474;8.616;2023-04-05T16:05:57;20.20;43.30
7720;DHT22;3902;49.474;8.616;2023-04-05T16:08:23;19.90;43.00
7720;DHT22;3902;49.474;8.616;2023-04-05T16:10:49;19.70;43.20
7720;DHT22;3902;49.474;8.616;2023-04-05T16:13:15;19.60;43.40
7720;DHT22;3902;49.474;8.616;2023-04-05T16:15:41;19.20;42.70
7720;DHT22;3902;49.474;8.616;2023-04-05T16:18:07;19.10;43.00
7720;DHT22;3902;49.474;8.616;2023-04-05T16:20:35;19.10;43.30
7720;DHT22;3902;49.474;8.616;2023-04-05T16:23:01;18.80;43.30
7720;DHT22;3902;49.474;8.616;2023-04-05T16:25:27;18.70;43.80
7720;DHT22;3902;49.474;8.616;2023-04-05T16:27:52;18.50;44.00
7720;DHT22;3902;49.474;8.616;2023-04-05T16:30:18;18.30;43.90
7720;DHT22;3902;49.474;8.616;2023-04-05T16:32:43;18.20;43.90
7720;DHT22;3902;49.474;8.616;2023-04-05T16:35:09;18.00;44.30
7720;DHT22;3902;49.474;8.616;2023-04-05T16:37:35;17.80;45.00